createdAt,value
2018-03-15T00:00:54.252Z,18.73
2018-03-15T00:03:27.930Z,21.30
2018-03-15T00:05:55.536Z,14.90
2018-03-15T00:08:23.091Z,19.83
2018-03-15T00:10:50.689Z,18.63
2018-03-15T00:13:18.238Z,22.20
2018-03-15T00:15:45.831Z,24.60
2018-03-15T00:18:14.303Z,22.17
2018-03-15T00:20:41.911Z,25.83
2018-03-15T00:23:09.462Z,20.30
2018-03-15T00:25:37.958Z,22.93
2018-03-15T00:28:05.510Z,22.53
2018-03-15T00:30:33.066Z,20.97
2018-03-15T00:33:00.617Z,21.63
2018-03-15T00:35:28.175Z,23.47
2018-03-15T00:37:55.722Z,22.93
2018-03-15T00:40:23.270Z,20.83
2018-03-15T00:42:50.822Z,24.50
2018-03-15T00:45:18.379Z,25.17
2018-03-15T00:47:45.935Z,21.00
2018-03-15T00:50:13.488Z,21.93
2018-03-15T00:52:41.039Z,27.67
2018-03-15T00:55:08.589Z,23.20
2018-03-15T00:57:36.144Z,23.70
2018-03-15T01:00:03.699Z,18.40
2018-03-15T01:02:31.251Z,22.60
2018-03-15T01:04:58.799Z,29.97
2018-03-15T01:07:26.355Z,26.50
2018-03-15T01:09:53.904Z,24.60
2018-03-15T01:12:21.461Z,20.63
2018-03-15T01:14:49.903Z,22.23
2018-03-15T01:17:17.455Z,22.10
2018-03-15T01:19:45.003Z,22.60
2018-03-15T01:22:12.590Z,24.10
2018-03-15T01:24:40.143Z,16.30
2018-03-15T01:27:07.734Z,27.70
2018-03-15T01:29:35.294Z,23.83
2018-03-15T01:32:02.850Z,20.33
2018-03-15T01:34:30.393Z,23.47
2018-03-15T01:36:57.942Z,26.43
2018-03-15T01:39:25.530Z,23.87
2018-03-15T01:41:53.136Z,22.80
2018-03-15T01:44:20.686Z,19.17
2018-03-15T01:46:48.246Z,26.27
2018-03-15T01:49:17.734Z,20.50
2018-03-15T02:00:18.228Z,23.83
2018-03-15T02:02:55.764Z,25.40
2018-03-15T02:05:23.355Z,26.23
2018-03-15T02:07:50.946Z,24.60
2018-03-15T02:10:18.498Z,27.93
2018-03-15T02:12:46.963Z,22.13
2018-03-15T02:15:15.238Z,23.50
2018-03-15T02:17:42.840Z,22.67
2018-03-15T02:20:11.369Z,20.37
2018-03-15T02:22:39.735Z,28.83
2018-03-15T02:25:07.287Z,24.03
2018-03-15T02:27:34.842Z,24.20
2018-03-15T02:30:03.231Z,23.60
2018-03-15T02:32:31.608Z,24.20
2018-03-15T02:34:59.200Z,24.40
2018-03-15T02:37:27.699Z,21.00
2018-03-15T02:39:55.253Z,24.73
2018-03-15T02:42:22.807Z,26.33
2018-03-15T02:44:50.394Z,28.37
2018-03-15T02:47:17.942Z,24.70
2018-03-15T02:49:45.558Z,30.60
2018-03-15T02:52:13.157Z,29.10
2018-03-15T02:54:41.635Z,24.23
2018-03-15T02:57:09.186Z,24.40
2018-03-15T02:59:36.741Z,30.73
2018-03-15T03:02:04.299Z,29.73
2018-03-15T03:04:31.893Z,29.43
2018-03-15T03:06:59.498Z,30.63
2018-03-15T03:09:27.054Z,32.07
2018-03-15T03:11:54.614Z,30.33
2018-03-15T03:14:23.137Z,24.17
2018-03-15T03:16:50.691Z,31.40
2018-03-15T03:19:18.239Z,30.83
2018-03-15T03:21:45.792Z,28.80
2018-03-15T03:24:13.341Z,31.37
2018-03-15T03:26:40.886Z,25.67
2018-03-15T03:29:08.444Z,33.70
2018-03-15T03:31:35.995Z,26.77
2018-03-15T03:34:03.606Z,29.13
2018-03-15T03:36:31.155Z,26.73
2018-03-15T03:38:58.705Z,33.83
2018-03-15T03:41:26.289Z,31.80
2018-03-15T03:43:53.830Z,30.20
2018-03-15T03:46:21.391Z,27.30
2018-03-15T03:48:48.947Z,29.37
2018-03-15T03:51:17.434Z,30.23
2018-03-15T03:53:44.991Z,33.17
2018-03-15T03:56:12.613Z,29.77
2018-03-15T03:58:40.166Z,29.80
2018-03-15T04:01:07.720Z,31.10
2018-03-15T04:03:35.274Z,31.85
2018-03-15T04:06:02.830Z,24.47
2018-03-15T04:08:30.378Z,25.63
2018-03-15T04:10:58.826Z,24.33
2018-03-15T04:13:26.396Z,26.53
2018-03-15T04:15:53.987Z,28.60
2018-03-15T04:18:22.384Z,29.40
2018-03-15T04:20:49.975Z,22.50
2018-03-15T04:23:18.302Z,31.73
2018-03-15T04:25:45.897Z,33.27
2018-03-15T04:28:13.479Z,29.93
2018-03-15T04:30:41.070Z,31.23
2018-03-15T04:33:09.521Z,33.50
2018-03-15T04:35:37.075Z,29.23
2018-03-15T04:38:04.624Z,27.27
2018-03-15T04:40:32.212Z,29.27
2018-03-15T04:42:59.767Z,35.60
2018-03-15T04:45:27.325Z,33.93
2018-03-15T04:47:54.874Z,30.67
2018-03-15T04:50:22.454Z,34.60
2018-03-15T04:52:50.051Z,27.80
2018-03-15T04:55:18.509Z,36.90
2018-03-15T04:57:46.065Z,31.93
2018-03-15T05:00:14.522Z,32.17
2018-03-15T05:02:42.115Z,29.50
2018-03-15T05:05:10.611Z,36.20
2018-03-15T05:07:38.162Z,40.33
2018-03-15T05:10:06.622Z,34.07
2018-03-15T05:12:34.188Z,38.20
2018-03-15T05:15:02.463Z,34.10
2018-03-15T05:17:30.810Z,30.27
2018-03-15T05:19:59.106Z,38.47
2018-03-15T05:22:27.492Z,33.90
2018-03-15T05:24:55.869Z,32.90
2018-03-15T05:27:23.418Z,41.27
2018-03-15T05:29:51.919Z,36.27
2018-03-15T05:32:20.268Z,38.47
2018-03-15T05:34:48.610Z,32.00
2018-03-15T05:37:16.962Z,38.83
2018-03-15T05:39:45.296Z,37.60
2018-03-15T05:42:13.660Z,40.10
2018-03-15T05:44:41.215Z,39.17
2018-03-15T05:47:08.799Z,33.50
2018-03-15T05:49:37.177Z,33.73
2018-03-15T05:52:05.543Z,33.27
2018-03-15T05:54:33.096Z,30.73
2018-03-15T05:57:00.687Z,34.83
2018-03-15T05:59:28.284Z,37.47
2018-03-15T06:01:56.639Z,36.37
2018-03-15T06:04:24.226Z,42.30
2018-03-15T06:06:51.818Z,34.33
2018-03-15T06:09:19.371Z,38.07
2018-03-15T06:11:46.965Z,38.63
2018-03-15T06:14:14.554Z,34.03
2018-03-15T06:16:42.145Z,39.73
2018-03-15T06:19:09.702Z,44.27
2018-03-15T06:21:37.283Z,41.17
2018-03-15T06:24:05.785Z,47.83
2018-03-15T06:26:33.369Z,44.27
2018-03-15T06:29:00.922Z,41.90
2018-03-15T06:31:28.612Z,41.03
2018-03-15T06:33:56.946Z,48.57
2018-03-15T06:36:25.333Z,50.70
2018-03-15T06:38:53.624Z,39.30
2018-03-15T06:41:21.920Z,38.87
2018-03-15T06:43:49.517Z,44.93
2018-03-15T06:46:17.073Z,41.50
2018-03-15T06:48:44.623Z,49.50
2018-03-15T06:51:12.871Z,38.93
2018-03-15T06:53:40.438Z,43.90
2018-03-15T06:56:07.991Z,40.30
2018-03-15T06:58:35.543Z,46.43
2018-03-15T07:01:03.101Z,40.60
2018-03-15T07:03:30.655Z,48.47
2018-03-15T07:05:58.211Z,43.03
2018-03-15T07:08:26.693Z,39.73
2018-03-15T07:10:54.246Z,44.13
2018-03-15T07:13:21.800Z,44.90
2018-03-15T07:15:49.350Z,44.37
2018-03-15T07:18:18.086Z,47.43
2018-03-15T07:20:45.640Z,42.23
2018-03-15T07:23:13.188Z,41.50
2018-03-15T07:25:41.767Z,43.90
2018-03-15T07:28:09.329Z,51.80
2018-03-15T07:30:36.938Z,57.77
2018-03-15T07:33:04.501Z,38.43
2018-03-15T07:35:32.864Z,44.20
2018-03-15T07:38:01.209Z,46.20
2018-03-15T07:40:29.682Z,39.20
2018-03-15T07:42:57.240Z,38.17
2018-03-15T07:45:24.787Z,43.47
2018-03-15T07:47:52.335Z,37.73
2018-03-15T07:50:19.890Z,52.00
2018-03-15T07:52:47.445Z,44.47
2018-03-15T07:55:14.999Z,43.63
2018-03-15T07:57:42.554Z,43.73
2018-03-15T08:00:10.102Z,43.07
2018-03-15T08:02:38.563Z,45.63
2018-03-15T08:05:06.116Z,40.00
2018-03-15T08:07:33.674Z,55.67
2018-03-15T08:10:01.271Z,45.00
2018-03-15T08:12:28.816Z,36.17
2018-03-15T08:14:56.367Z,43.30
2018-03-15T08:17:23.918Z,52.70
2018-03-15T08:19:51.480Z,52.23
2018-03-15T08:22:19.043Z,42.23
2018-03-15T08:24:47.421Z,42.10
2018-03-15T08:27:15.012Z,51.93
2018-03-15T08:29:43.390Z,46.20
2018-03-15T08:32:10.976Z,44.83
2018-03-15T08:34:39.227Z,43.23
2018-03-15T08:37:06.776Z,48.27
2018-03-15T08:39:34.352Z,55.17
2018-03-15T08:42:01.913Z,43.17
2018-03-15T08:44:30.259Z,54.73
2018-03-15T08:46:58.620Z,49.77
2018-03-15T08:49:26.180Z,39.13
2018-03-15T08:51:54.631Z,35.93
2018-03-15T08:54:22.978Z,40.50
2018-03-15T08:56:50.596Z,32.30
2018-03-15T08:59:18.977Z,36.60
2018-03-15T09:01:47.303Z,41.20
2018-03-15T09:04:15.587Z,32.90
2018-03-15T09:06:43.136Z,35.27
2018-03-15T09:09:11.550Z,39.27
2018-03-15T09:11:39.168Z,37.90
2018-03-15T09:14:06.720Z,34.47
2018-03-15T09:16:35.064Z,37.03
2018-03-15T09:19:02.615Z,40.37
2018-03-15T09:21:30.198Z,36.10
2018-03-15T09:23:57.741Z,39.90
2018-03-15T09:26:26.215Z,42.77
2018-03-15T09:28:53.803Z,37.17
2018-03-15T09:31:21.358Z,41.13
2018-03-15T09:33:48.946Z,37.47
2018-03-15T09:36:16.564Z,33.37
2018-03-15T09:38:44.130Z,46.60
2018-03-15T09:41:11.711Z,36.83
2018-03-15T09:43:39.293Z,34.50
2018-03-15T09:46:06.971Z,35.00
2018-03-15T09:48:34.488Z,37.23
2018-03-15T09:51:02.050Z,35.30
2018-03-15T09:53:29.667Z,34.33
2018-03-15T09:55:57.239Z,31.70
2018-03-15T09:58:24.803Z,39.27
2018-03-15T10:00:52.365Z,28.10
2018-03-15T10:03:20.907Z,37.77
2018-03-15T10:05:48.478Z,30.43
2018-03-15T10:08:16.051Z,32.90
2018-03-15T10:10:43.622Z,26.20
2018-03-15T10:13:12.146Z,29.00
2018-03-15T10:15:39.728Z,28.83
2018-03-15T10:18:07.304Z,34.27
2018-03-15T10:20:34.982Z,34.30
2018-03-15T10:23:02.555Z,27.10
2018-03-15T10:25:30.179Z,30.00
2018-03-15T10:27:57.738Z,29.73
2018-03-15T10:30:25.319Z,34.00
2018-03-15T10:32:58.631Z,33.60
2018-03-15T10:35:29.069Z,34.60
2018-03-15T10:37:56.643Z,31.10
2018-03-15T10:40:25.120Z,27.77
2018-03-15T10:42:52.683Z,33.93
2018-03-15T10:45:20.270Z,28.73
2018-03-15T10:47:47.849Z,26.57
2018-03-15T10:50:16.224Z,29.43
2018-03-15T10:52:43.796Z,27.77
2018-03-15T10:55:11.475Z,27.30
2018-03-15T10:57:39.049Z,22.30
2018-03-15T11:00:07.418Z,27.00
2018-03-15T11:02:40.639Z,30.80
2018-03-15T11:05:13.915Z,25.93
2018-03-15T11:07:41.491Z,27.73
2018-03-15T11:10:09.058Z,25.63
2018-03-15T11:12:36.623Z,27.00
2018-03-15T11:15:04.191Z,25.60
2018-03-15T11:17:31.798Z,27.60
2018-03-15T11:19:59.378Z,28.70
2018-03-15T11:22:26.965Z,27.03
2018-03-15T11:24:54.546Z,26.20
2018-03-15T11:27:22.157Z,26.33
2018-03-15T11:29:49.730Z,27.13
2018-03-15T11:32:17.304Z,28.33
2018-03-15T11:34:44.880Z,27.90
2018-03-15T11:37:12.452Z,28.40
2018-03-15T11:39:40.346Z,27.40
2018-03-15T11:42:07.914Z,23.70
2018-03-15T11:44:35.499Z,22.60
2018-03-15T11:47:03.071Z,29.00
2018-03-15T11:49:30.651Z,28.60
2018-03-15T11:51:58.223Z,26.63
2018-03-15T11:54:25.798Z,26.40
2018-03-15T11:56:53.370Z,24.03
2018-03-15T11:59:20.975Z,25.07
2018-03-15T12:01:48.569Z,25.83
2018-03-15T12:04:16.134Z,26.40
2018-03-15T12:06:43.716Z,22.10
2018-03-15T12:09:11.279Z,32.70
2018-03-15T12:11:38.856Z,29.90
2018-03-15T12:14:06.422Z,23.30
2018-03-15T12:16:34.044Z,27.10
2018-03-15T12:19:01.595Z,27.83
2018-03-15T12:21:29.154Z,26.87
2018-03-15T12:23:56.746Z,27.43
2018-03-15T12:26:24.302Z,27.50
2018-03-15T12:28:51.850Z,31.63
2018-03-15T12:31:19.505Z,30.60
2018-03-15T12:33:47.067Z,31.40
2018-03-15T12:36:14.619Z,30.83
2018-03-15T12:38:42.172Z,27.67
2018-03-15T12:41:09.726Z,26.33
2018-03-15T12:43:37.315Z,20.77
2018-03-15T12:46:04.867Z,25.50
2018-03-15T12:48:32.420Z,26.50
2018-03-15T12:50:59.977Z,21.23
2018-03-15T12:53:27.705Z,22.80
2018-03-15T12:55:55.284Z,28.73
2018-03-15T12:58:23.785Z,24.43
2018-03-15T13:00:52.039Z,26.03
2018-03-15T13:03:20.287Z,30.03
2018-03-15T13:05:47.886Z,33.60
2018-03-15T13:08:16.342Z,26.83
2018-03-15T13:10:43.900Z,29.73
2018-03-15T13:13:12.731Z,29.23
2018-03-15T13:15:40.323Z,24.50
2018-03-15T13:18:08.774Z,30.67
2018-03-15T13:20:37.109Z,32.60
2018-03-15T13:23:04.692Z,31.43
2018-03-15T13:25:33.027Z,28.47
2018-03-15T13:28:00.584Z,33.57
2018-03-15T13:30:29.038Z,29.80
2018-03-15T13:32:56.594Z,29.97
2018-03-15T13:35:24.155Z,28.50
2018-03-15T13:37:52.610Z,41.87
2018-03-15T13:40:20.198Z,32.17
2018-03-15T13:42:47.750Z,31.93
2018-03-15T13:45:15.347Z,25.67
2018-03-15T13:47:42.895Z,27.27
2018-03-15T13:50:10.443Z,25.50
2018-03-15T13:52:37.997Z,28.23
2018-03-15T13:55:05.543Z,25.13
2018-03-15T13:57:33.133Z,30.83
2018-03-15T14:00:00.687Z,31.53
2018-03-15T14:02:28.230Z,26.83
2018-03-15T14:04:55.785Z,33.77
2018-03-15T14:07:24.163Z,31.10
2018-03-15T14:09:51.709Z,39.90
2018-03-15T14:12:20.234Z,30.33
2018-03-15T14:14:48.579Z,38.03
2018-03-15T14:17:16.996Z,34.00
2018-03-15T14:19:44.560Z,28.63
2018-03-15T14:22:12.111Z,30.63
2018-03-15T14:24:39.659Z,29.93
2018-03-15T14:27:07.215Z,23.27
2018-03-15T14:29:34.839Z,25.63
2018-03-15T14:32:02.373Z,19.70
2018-03-15T14:34:29.925Z,24.73
2018-03-15T14:36:57.475Z,32.73
2018-03-15T14:39:25.028Z,29.57
2018-03-15T14:41:52.611Z,23.80
2018-03-15T14:44:20.201Z,26.03
2018-03-15T14:46:48.534Z,24.40
2018-03-15T14:49:16.083Z,25.83
2018-03-15T14:51:43.627Z,26.03
2018-03-15T14:54:11.179Z,25.77
2018-03-15T14:56:38.725Z,23.90
2018-03-15T14:59:06.276Z,22.47
2018-03-15T15:04:07.626Z,27.93
2018-03-15T15:06:35.188Z,24.93
2018-03-15T15:09:02.737Z,27.20
2018-03-15T15:11:31.211Z,27.67
2018-03-15T15:13:58.775Z,28.87
2018-03-15T15:16:27.115Z,26.07
2018-03-15T15:18:54.668Z,22.27
2018-03-15T15:21:22.223Z,22.97
2018-03-15T15:23:50.432Z,22.87
2018-03-15T15:26:17.978Z,23.67
2018-03-15T15:28:45.531Z,27.80
2018-03-15T15:31:13.126Z,22.03
2018-03-15T15:33:39.965Z,25.97
2018-03-15T15:36:07.515Z,27.73
2018-03-15T15:38:35.059Z,24.90
2018-03-15T15:41:03.315Z,35.43
2018-03-15T15:43:30.867Z,25.00
2018-03-15T15:45:58.419Z,30.00
2018-03-15T15:48:25.979Z,25.27
2018-03-15T15:50:53.569Z,19.87
2018-03-15T15:53:21.124Z,27.77
2018-03-15T15:55:48.675Z,18.93
2018-03-15T15:58:16.925Z,25.07
2018-03-15T16:00:44.491Z,31.03
2018-03-15T16:03:12.083Z,29.20
2018-03-15T16:05:39.641Z,26.30
2018-03-15T16:08:07.938Z,30.97
2018-03-15T16:10:35.496Z,22.70
2018-03-15T16:13:03.055Z,38.63
2018-03-15T16:15:30.642Z,30.20
2018-03-15T16:17:58.196Z,37.70
2018-03-15T16:20:25.757Z,34.80
2018-03-15T16:22:53.306Z,30.73
2018-03-15T16:25:20.861Z,29.40
2018-03-15T16:27:48.415Z,31.27
2018-03-15T16:30:16.737Z,31.90
2018-03-15T16:32:44.287Z,30.00
2018-03-15T16:35:12.628Z,27.17
2018-03-15T16:37:40.967Z,32.50
2018-03-15T16:40:09.391Z,38.10
2018-03-15T16:42:37.892Z,35.20
2018-03-15T16:45:06.215Z,35.20
2018-03-15T16:47:34.567Z,30.80
2018-03-15T16:50:02.913Z,28.40
2018-03-15T16:52:31.255Z,37.03
2018-03-15T16:54:58.823Z,27.33
2018-03-15T16:57:26.369Z,31.70
2018-03-15T16:59:54.717Z,31.90
2018-03-15T17:02:23.140Z,26.90
2018-03-15T17:04:50.696Z,30.80
2018-03-15T17:07:19.168Z,31.00
2018-03-15T17:09:46.721Z,32.20
2018-03-15T17:12:15.051Z,30.83
2018-03-15T17:14:42.599Z,30.23
2018-03-15T17:17:10.151Z,28.40
2018-03-15T17:19:38.608Z,29.37
2018-03-15T17:22:06.152Z,29.73
2018-03-15T17:24:33.742Z,36.30
2018-03-15T17:27:01.295Z,37.73
2018-03-15T17:29:28.883Z,34.37
2018-03-15T17:31:56.506Z,29.27
2018-03-15T17:34:25.007Z,30.60
2018-03-15T17:36:52.589Z,32.70
2018-03-15T17:39:21.084Z,34.40
2018-03-15T17:41:48.694Z,40.27
2018-03-15T17:44:17.091Z,40.23
2018-03-15T17:46:44.710Z,32.27
2018-03-15T17:49:12.292Z,40.70
2018-03-15T17:51:40.774Z,37.07
2018-03-15T17:54:08.395Z,35.30
2018-03-15T17:56:35.974Z,35.33
2018-03-15T17:59:03.595Z,41.53
2018-03-15T18:01:31.187Z,38.80
2018-03-15T18:03:59.667Z,33.63
2018-03-15T18:06:27.243Z,41.27
2018-03-15T18:08:55.729Z,39.97
2018-03-15T18:11:23.306Z,38.00
2018-03-15T18:13:50.923Z,37.63
2018-03-15T18:16:18.504Z,51.07
2018-03-15T18:18:46.083Z,42.40
2018-03-15T18:21:13.727Z,45.60
2018-03-15T18:23:41.280Z,41.23
2018-03-15T18:26:08.859Z,38.67
2018-03-15T18:28:36.445Z,37.93
2018-03-15T18:31:04.129Z,42.97
2018-03-15T18:33:31.710Z,47.83
2018-03-15T18:35:59.294Z,47.67
2018-03-15T18:38:26.874Z,44.73
2018-03-15T18:40:54.455Z,42.50
2018-03-15T18:43:22.030Z,47.30
2018-03-15T18:45:49.614Z,45.00
2018-03-15T18:48:17.213Z,50.73
2018-03-15T18:50:44.799Z,52.93
2018-03-15T18:53:12.380Z,45.70
2018-03-15T18:55:40.746Z,48.33
2018-03-15T18:58:09.096Z,47.57
2018-03-15T19:00:36.676Z,53.33
2018-03-15T19:03:04.255Z,40.83
2018-03-15T19:05:32.821Z,51.43
2018-03-15T19:08:00.403Z,53.50
2018-03-15T19:10:28.756Z,50.03
2018-03-15T19:12:56.315Z,56.50
2018-03-15T19:15:24.727Z,46.20
2018-03-15T19:17:53.070Z,53.60
2018-03-15T19:20:20.651Z,47.30
2018-03-15T19:22:48.287Z,54.97
2018-03-15T19:25:16.648Z,53.47
2018-03-15T19:27:44.225Z,53.17
2018-03-15T19:30:11.808Z,57.73
2018-03-15T19:32:39.408Z,57.63
2018-03-15T19:35:07.851Z,54.03
2018-03-15T19:37:35.436Z,59.23
2018-03-15T19:40:03.072Z,61.10
2018-03-15T19:42:30.699Z,53.23
2018-03-15T19:44:59.011Z,60.00
2018-03-15T19:47:27.373Z,64.37
2018-03-15T19:49:55.863Z,66.47
2018-03-15T19:52:23.442Z,48.27
2018-03-15T19:54:51.022Z,56.87
2018-03-15T19:57:18.641Z,57.80
2018-03-15T19:59:46.223Z,61.80
2018-03-15T20:02:13.804Z,60.67
2018-03-15T20:04:41.447Z,52.70
2018-03-15T20:07:09.993Z,61.30
2018-03-15T20:09:38.253Z,55.90
2018-03-15T20:12:06.627Z,56.00
2018-03-15T20:14:34.991Z,66.90
2018-03-15T20:17:02.571Z,57.67
2018-03-15T20:19:30.963Z,63.47
2018-03-15T20:21:58.545Z,63.83
2018-03-15T20:24:31.618Z,58.40
2018-03-15T20:27:00.029Z,60.97
2018-03-15T20:29:28.407Z,55.50
2018-03-15T20:31:55.993Z,60.13
2018-03-15T20:34:24.781Z,66.00
2018-03-15T20:36:52.742Z,67.60
2018-03-15T20:39:26.635Z,59.70
2018-03-15T20:41:55.046Z,68.33
2018-03-15T20:44:22.659Z,76.63
2018-03-15T20:46:56.730Z,60.77
2018-03-15T20:49:25.082Z,56.97
2018-03-15T20:51:53.398Z,54.17
2018-03-15T20:54:21.520Z,63.50
2018-03-15T20:56:49.099Z,56.03
2018-03-15T20:59:16.750Z,64.20
2018-03-15T21:01:44.341Z,65.40
2018-03-15T21:04:12.707Z,67.40
2018-03-15T21:06:41.075Z,60.90
2018-03-15T21:09:09.430Z,63.37
2018-03-15T21:11:37.007Z,65.07
2018-03-15T21:14:04.591Z,70.57
2018-03-15T21:16:32.999Z,64.03
2018-03-15T21:19:01.380Z,62.37
2018-03-15T21:21:28.960Z,57.67
2018-03-15T21:23:56.566Z,69.00
2018-03-15T21:26:24.156Z,74.83
2018-03-15T21:28:51.732Z,72.37
2018-03-15T21:31:19.317Z,66.13
2018-03-15T21:33:46.894Z,80.13
2018-03-15T21:36:14.551Z,62.60
2018-03-15T21:38:42.120Z,65.30
2018-03-15T21:41:09.703Z,70.53
2018-03-15T21:43:37.323Z,62.03
2018-03-15T21:46:04.935Z,63.77
2018-03-15T21:48:32.516Z,73.67
2018-03-15T21:51:00.099Z,69.60
2018-03-15T21:53:27.720Z,63.80
2018-03-15T21:55:55.308Z,71.27
2018-03-15T21:58:22.928Z,79.23
2018-03-15T22:00:50.509Z,76.40
2018-03-15T22:03:18.082Z,68.90
2018-03-15T22:05:46.553Z,79.63
2018-03-15T22:08:14.171Z,68.63
2018-03-15T22:10:41.747Z,73.80
2018-03-15T22:13:09.322Z,74.37
2018-03-15T22:15:36.899Z,74.90
2018-03-15T22:18:04.534Z,83.60
2018-03-15T22:20:32.155Z,76.37
2018-03-15T22:22:59.734Z,77.83
2018-03-15T22:25:27.348Z,77.57
2018-03-15T22:27:54.932Z,72.53
2018-03-15T22:30:22.558Z,76.17
2018-03-15T22:32:50.139Z,69.40
2018-03-15T22:35:17.719Z,78.27
2018-03-15T22:37:45.325Z,78.73
2018-03-15T22:40:12.914Z,73.33
2018-03-15T22:42:40.503Z,70.93
2018-03-15T22:45:08.082Z,70.70
2018-03-15T22:47:35.658Z,72.47
2018-03-15T22:50:03.236Z,86.63
2018-03-15T22:52:30.821Z,72.70
2018-03-15T22:54:58.398Z,73.80
2018-03-15T22:57:26.022Z,70.13
2018-03-15T22:59:53.599Z,87.13
2018-03-15T23:02:21.180Z,78.23
2018-03-15T23:04:48.761Z,77.57
2018-03-15T23:07:16.347Z,80.03
2018-03-15T23:09:43.926Z,79.30
2018-03-15T23:12:11.519Z,78.33
2018-03-15T23:14:39.930Z,82.67
2018-03-15T23:17:07.507Z,78.73
2018-03-15T23:19:35.871Z,84.33
2018-03-15T23:22:03.446Z,58.07
2018-03-15T23:24:31.027Z,104.30
2018-03-15T23:26:58.648Z,90.53
2018-03-15T23:29:26.226Z,82.90
2018-03-15T23:31:53.806Z,107.33
2018-03-15T23:34:21.381Z,89.87
2018-03-15T23:36:48.964Z,91.67
2018-03-15T23:39:16.586Z,100.90
2018-03-15T23:41:44.163Z,79.57
2018-03-15T23:44:11.747Z,92.30
2018-03-15T23:46:39.328Z,79.30
2018-03-15T23:49:06.912Z,75.90
2018-03-15T23:51:34.495Z,93.40
2018-03-15T23:54:02.076Z,80.80
2018-03-15T23:56:29.659Z,90.03
2018-03-15T23:58:57.234Z,85.20
